sensor_id;sensor_type;location;lat;lon;timestamp;pressure;altitude;pressure_sealevel;temperature;humidity
10720;BME280;5411;58.386;15.560;2022-11-21T00:00:31;99194.59;;;0.63;100.00
10720;BME280;5411;58.386;15.560;2022-11-21T00:02:59;99203.66;;;0.61;100.00
10720;BME280;5411;58.386;15.560;2022-11-21T00:05:28;99199.38;;;0.60;100.00
10720;BME280;5411;58.386;15.560;2022-11-21T00:07:58;99202.84;;;0.60;100.00
10720;BME280;5411;58.386;15.560;2022-11-21T00:10:26;99198.88;;;0.56;100.00
10720;BME280;5411;58.386;15.560;2022-11-21T00:12:55;99193.47;;;0.58;100.00
10720;BME280;5411;58.386;15.560;2022-11-21T00:15:25;99200.69;;;0.56;100.00
10720;BME280;5411;58.386;15.560;2022-11-21T00:17:53;99199.72;;;0.57;100.00
10720;BME280;5411;58.386;15.560;2022-11-21T00:20:21;99200.69;;;0.56;100.00
10720;BME280;5411;58.386;15.560;2022-11-21T00:22:49;99191.34;;;0.53;100.00
10720;BME280;5411;58.386;15.560;2022-11-21T00:25:19;99192.13;;;0.54;100.00
10720;BME280;5411;58.386;15.560;2022-11-21T00:27:47;99192.13;;;0.54;100.00
10720;BME280;5411;58.386;15.560;2022-11-21T00:30:15;99193.78;;;0.55;100.00
10720;BME280;5411;58.386;15.560;2022-11-21T00:32:43;99191.00;;;0.56;100.00
10720;BME280;5411;58.386;15.560;2022-11-21T00:35:11;99194.44;;;0.57;100.00
10720;BME280;5411;58.386;15.560;2022-11-21T00:37:40;99196.09;;;0.58;100.00
10720;BME280;5411;58.386;15.560;2022-11-21T00:40:34;99189.69;;;0.60;100.00
10720;BME280;5411;58.386;15.560;2022-11-21T00:43:02;99196.41;;;0.63;100.00
10720;BME280;5411;58.386;15.560;2022-11-21T00:45:30;99197.69;;;0.67;100.00
10720;BME280;5411;58.386;15.560;2022-11-21T00:47:58;99203.63;;;0.69;100.00
10720;BME280;5411;58.386;15.560;2022-11-21T00:50:26;99201.66;;;0.71;100.00
10720;BME280;5411;58.386;15.560;2022-11-21T00:52:55;99202.31;;;0.73;100.00
10720;BME280;5411;58.386;15.560;2022-11-21T00:55:23;99202.63;;;0.70;100.00
10720;BME280;5411;58.386;15.560;2022-11-21T00:57:53;99208.06;;;0.68;100.00
10720;BME280;5411;58.386;15.560;2022-11-21T01:00:21;99206.78;;;0.64;100.00
10720;BME280;5411;58.386;15.560;2022-11-21T01:02:49;99206.28;;;0.61;100.00
10720;BME280;5411;58.386;15.560;2022-11-21T01:05:17;99207.94;;;0.54;100.00
10720;BME280;5411;58.386;15.560;2022-11-21T01:07:47;99213.38;;;0.52;100.00
10720;BME280;5411;58.386;15.560;2022-11-21T01:10:15;99219.63;;;0.51;100.00
10720;BME280;5411;58.386;15.560;2022-11-21T01:12:43;99216.19;;;0.51;100.00
10720;BME280;5411;58.386;15.560;2022-11-21T01:15:12;99219.63;;;0.51;100.00
10720;BME280;5411;58.386;15.560;2022-11-21T01:17:41;99216.00;;;0.52;100.00
10720;BME280;5411;58.386;15.560;2022-11-21T01:20:09;99225.72;;;0.52;100.00
10720;BME280;5411;58.386;15.560;2022-11-21T01:22:38;99222.91;;;0.53;100.00
10720;BME280;5411;58.386;15.560;2022-11-21T01:25:06;99228.00;;;0.55;100.00
10720;BME280;5411;58.386;15.560;2022-11-21T01:27:35;99226.03;;;0.57;100.00
10720;BME280;5411;58.386;15.560;2022-11-21T01:30:04;99235.56;;;0.58;100.00
10720;BME280;5411;58.386;15.560;2022-11-21T01:32:33;99230.28;;;0.58;100.00
10720;BME280;5411;58.386;15.560;2022-11-21T01:35:01;99237.69;;;0.62;100.00
10720;BME280;5411;58.386;15.560;2022-11-21T01:37:30;99239.50;;;0.62;100.00
10720;BME280;5411;58.386;15.560;2022-11-21T01:39:59;99234.91;;;0.64;100.00
10720;BME280;5411;58.386;15.560;2022-11-21T01:42:27;99243.63;;;0.64;100.00
10720;BME280;5411;58.386;15.560;2022-11-21T01:44:55;99242.97;;;0.62;100.00
10720;BME280;5411;58.386;15.560;2022-11-21T01:47:23;99244.59;;;0.63;100.00
10720;BME280;5411;58.386;15.560;2022-11-21T01:49:53;99243.63;;;0.64;100.00
10720;BME280;5411;58.386;15.560;2022-11-21T01:52:25;99246.91;;;0.66;100.00
10720;BME280;5411;58.386;15.560;2022-11-21T01:54:58;99244.44;;;0.65;100.00
10720;BME280;5411;58.386;15.560;2022-11-21T01:57:31;99244.91;;;0.68;100.00
10720;BME280;5411;58.386;15.560;2022-11-21T02:00:04;99248.19;;;0.70;100.00
10720;BME280;5411;58.386;15.560;2022-11-21T02:02:36;99250.66;;;0.72;100.00
10720;BME280;5411;58.386;15.560;2022-11-21T02:05:10;99252.31;;;0.73;100.00
10720;BME280;5411;58.386;15.560;2022-11-21T02:07:42;99255.59;;;0.75;100.00
10720;BME280;5411;58.386;15.560;2022-11-21T02:10:12;99259.22;;;0.74;100.00
10720;BME280;5411;58.386;15.560;2022-11-21T02:12:46;99253.63;;;0.77;100.00
10720;BME280;5411;58.386;15.560;2022-11-21T02:15:16;99256.09;;;0.79;100.00
10720;BME280;5411;58.386;15.560;2022-11-21T02:17:44;99255.13;;;0.80;100.00
10720;BME280;5411;58.386;15.560;2022-11-21T02:20:15;99263.81;;;0.80;100.00
10720;BME280;5411;58.386;15.560;2022-11-21T02:22:49;99259.84;;;0.84;100.00
10720;BME280;5411;58.386;15.560;2022-11-21T02:25:24;99270.06;;;0.87;100.00
10720;BME280;5411;58.386;15.560;2022-11-21T02:27:56;99272.69;;;0.87;100.00
10720;BME280;5411;58.386;15.560;2022-11-21T02:30:26;99266.44;;;0.88;100.00
10720;BME280;5411;58.386;15.560;2022-11-21T02:32:55;99273.00;;;0.84;100.00
10720;BME280;5411;58.386;15.560;2022-11-21T02:35:23;99268.75;;;0.83;100.00
10720;BME280;5411;58.386;15.560;2022-11-21T02:37:55;99276.66;;;0.75;100.00
10720;BME280;5411;58.386;15.560;2022-11-21T02:40:32;99273.84;;;0.68;100.00
10720;BME280;5411;58.386;15.560;2022-11-21T02:43:07;99283.09;;;0.56;100.00
10720;BME280;5411;58.386;15.560;2022-11-21T02:45:38;99281.94;;;0.51;100.00
10720;BME280;5411;58.386;15.560;2022-11-21T02:48:07;99291.97;;;0.47;100.00
10720;BME280;5411;58.386;15.560;2022-11-21T02:50:36;99289.81;;;0.43;100.00
10720;BME280;5411;58.386;15.560;2022-11-21T02:53:07;99284.25;;;0.38;100.00
10720;BME280;5411;58.386;15.560;2022-11-21T02:55:37;99290.97;;;0.32;100.00
10720;BME280;5411;58.386;15.560;2022-11-21T02:58:06;99290.63;;;0.27;100.00
10720;BME280;5411;58.386;15.560;2022-11-21T03:00:39;99285.38;;;0.19;100.00
10720;BME280;5411;58.386;15.560;2022-11-21T03:03:08;99287.84;;;0.12;100.00
10720;BME280;5411;58.386;15.560;2022-11-21T03:05:37;99282.09;;;0.09;100.00
10720;BME280;5411;58.386;15.560;2022-11-21T03:08:06;99291.44;;;0.03;100.00
10720;BME280;5411;58.386;15.560;2022-11-21T03:10:36;99290.97;;;-0.01;100.00
10720;BME280;5411;58.386;15.560;2022-11-21T03:13:04;99297.53;;;-0.05;100.00
10720;BME280;5411;58.386;15.560;2022-11-21T03:15:34;99300.31;;;-0.06;100.00
10720;BME280;5411;58.386;15.560;2022-11-21T03:18:03;99296.03;;;-0.07;100.00
10720;BME280;5411;58.386;15.560;2022-11-21T03:20:32;99300.78;;;-0.11;100.00
10720;BME280;5411;58.386;15.560;2022-11-21T03:23:01;99306.38;;;-0.14;100.00
10720;BME280;5411;58.386;15.560;2022-11-21T03:25:29;99303.09;;;-0.16;100.00
10720;BME280;5411;58.386;15.560;2022-11-21T03:27:59;99302.25;;;-0.16;100.00
10720;BME280;5411;58.386;15.560;2022-11-21T03:30:27;99310.81;;;-0.14;100.00
10720;BME280;5411;58.386;15.560;2022-11-21T03:32:55;99301.91;;;-0.13;100.00
10720;BME280;5411;58.386;15.560;2022-11-21T03:35:24;99302.94;;;-0.14;100.00
10720;BME280;5411;58.386;15.560;2022-11-21T03:37:54;99300.13;;;-0.13;100.00
10720;BME280;5411;58.386;15.560;2022-11-21T03:40:23;99294.38;;;-0.16;100.00
10720;BME280;5411;58.386;15.560;2022-11-21T03:42:51;99297.31;;;-0.19;100.00
10720;BME280;5411;58.386;15.560;2022-11-21T03:45:20;99296.81;;;-0.23;100.00
10720;BME280;5411;58.386;15.560;2022-11-21T03:47:48;99313.91;;;-0.27;100.00
10720;BME280;5411;58.386;15.560;2022-11-21T03:50:16;99304.00;;;-0.33;100.00
10720;BME280;5411;58.386;15.560;2022-11-21T03:52:46;99314.16;;;-0.38;100.00
10720;BME280;5411;58.386;15.560;2022-11-21T03:55:14;99312.69;;;-0.41;100.00
10720;BME280;5411;58.386;15.560;2022-11-21T03:57:42;99324.81;;;-0.40;100.00
10720;BME280;5411;58.386;15.560;2022-11-21T04:00:12;99317.13;;;-0.41;100.00
10720;BME280;5411;58.386;15.560;2022-11-21T04:02:42;99319.75;;;-0.41;100.00
10720;BME280;5411;58.386;15.560;2022-11-21T04:05:10;99320.06;;;-0.44;100.00
10720;BME280;5411;58.386;15.560;2022-11-21T04:07:38;99327.44;;;-0.48;100.00
10720;BME280;5411;58.386;15.560;2022-11-21T04:10:07;99323.81;;;-0.55;100.00
10720;BME280;5411;58.386;15.560;2022-11-21T04:12:35;99318.34;;;-0.61;100.00
10720;BME280;5411;58.386;15.560;2022-11-21T04:15:04;99327.03;;;-0.69;100.00
10720;BME280;5411;58.386;15.560;2022-11-21T04:17:39;99325.31;;;-0.78;100.00
10720;BME280;5411;58.386;15.560;2022-11-21T04:20:09;99324.44;;;-0.87;100.00
10720;BME280;5411;58.386;15.560;2022-11-21T04:22:38;99328.03;;;-0.96;100.00
10720;BME280;5411;58.386;15.560;2022-11-21T04:25:06;99333.19;;;-1.04;100.00
10720;BME280;5411;58.386;15.560;2022-11-21T04:27:34;99340.06;;;-1.11;100.00
10720;BME280;5411;58.386;15.560;2022-11-21T04:30:04;99335.56;;;-1.19;100.00
10720;BME280;5411;58.386;15.560;2022-11-21T04:32:32;99336.19;;;-1.25;100.00
10720;BME280;5411;58.386;15.560;2022-11-21T04:35:00;99342.69;;;-1.29;100.00
10720;BME280;5411;58.386;15.560;2022-11-21T04:37:29;99345.94;;;-1.35;100.00
10720;BME280;5411;58.386;15.560;2022-11-21T04:39:58;99347.38;;;-1.40;100.00
10720;BME280;5411;58.386;15.560;2022-11-21T04:42:26;99345.19;;;-1.45;100.00
10720;BME280;5411;58.386;15.560;2022-11-21T04:44:54;99343.03;;;-1.50;100.00
10720;BME280;5411;58.386;15.560;2022-11-21T04:47:22;99348.88;;;-1.56;100.00
10720;BME280;5411;58.386;15.560;2022-11-21T04:49:50;99349.16;;;-1.59;100.00
10720;BME280;5411;58.386;15.560;2022-11-21T04:52:18;99354.06;;;-1.64;100.00
10720;BME280;5411;58.386;15.560;2022-11-21T04:54:47;99346.50;;;-1.67;100.00
10720;BME280;5411;58.386;15.560;2022-11-21T04:57:15;99350.38;;;-1.71;100.00
10720;BME280;5411;58.386;15.560;2022-11-21T04:59:43;99356.91;;;-1.75;100.00
10720;BME280;5411;58.386;15.560;2022-11-21T05:02:11;99356.38;;;-1.78;100.00
10720;BME280;5411;58.386;15.560;2022-11-21T05:04:39;99357.63;;;-1.83;100.00
10720;BME280;5411;58.386;15.560;2022-11-21T05:07:07;99355.47;;;-1.87;100.00
10720;BME280;5411;58.386;15.560;2022-11-21T05:09:35;99362.81;;;-1.91;100.00
10720;BME280;5411;58.386;15.560;2022-11-21T05:12:05;99362.13;;;-1.93;100.00
10720;BME280;5411;58.386;15.560;2022-11-21T05:14:51;99364.88;;;-1.94;100.00
10720;BME280;5411;58.386;15.560;2022-11-21T05:17:19;99363.25;;;-1.95;100.00
10720;BME280;5411;58.386;15.560;2022-11-21T05:19:47;99363.38;;;-1.97;100.00
10720;BME280;5411;58.386;15.560;2022-11-21T05:22:15;99370.56;;;-1.99;100.00
10720;BME280;5411;58.386;15.560;2022-11-21T05:24:43;99374.47;;;-2.03;100.00
10720;BME280;5411;58.386;15.560;2022-11-21T05:27:12;99380.69;;;-2.04;100.00
10720;BME280;5411;58.386;15.560;2022-11-21T05:29:40;99385.25;;;-2.06;100.00
10720;BME280;5411;58.386;15.560;2022-11-21T05:32:08;99384.41;;;-2.06;100.00
10720;BME280;5411;58.386;15.560;2022-11-21T05:34:36;99385.38;;;-2.07;100.00
10720;BME280;5411;58.386;15.560;2022-11-21T05:37:04;99385.09;;;-2.04;100.00
10720;BME280;5411;58.386;15.560;2022-11-21T05:39:34;99383.97;;;-2.02;100.00
10720;BME280;5411;58.386;15.560;2022-11-21T05:42:02;99382.34;;;-2.03;100.00
10720;BME280;5411;58.386;15.560;2022-11-21T05:44:32;99380.06;;;-1.98;100.00
10720;BME280;5411;58.386;15.560;2022-11-21T05:46:59;99386.69;;;-1.94;100.00
10720;BME280;5411;58.386;15.560;2022-11-21T05:49:27;99392.31;;;-1.89;100.00
10720;BME280;5411;58.386;15.560;2022-11-21T05:51:55;99397.41;;;-1.87;100.00
10720;BME280;5411;58.386;15.560;2022-11-21T05:54:23;99402.47;;;-1.86;100.00
10720;BME280;5411;58.386;15.560;2022-11-21T05:56:52;99408.53;;;-1.85;100.00
10720;BME280;5411;58.386;15.560;2022-11-21T05:59:20;99420.00;;;-1.86;100.00
10720;BME280;5411;58.386;15.560;2022-11-21T06:01:49;99412.47;;;-1.89;100.00
10720;BME280;5411;58.386;15.560;2022-11-21T06:04:35;99415.91;;;-1.89;100.00
10720;BME280;5411;58.386;15.560;2022-11-21T06:07:03;99421.00;;;-1.87;100.00
10720;BME280;5411;58.386;15.560;2022-11-21T06:09:31;99418.38;;;-1.87;100.00
10720;BME280;5411;58.386;15.560;2022-11-21T06:11:59;99419.19;;;-1.87;100.00
10720;BME280;5411;58.386;15.560;2022-11-21T06:14:28;99416.41;;;-1.85;100.00
10720;BME280;5411;58.386;15.560;2022-11-21T06:16:57;99425.25;;;-1.86;100.00
10720;BME280;5411;58.386;15.560;2022-11-21T06:19:26;99420.31;;;-1.89;100.00
10720;BME280;5411;58.386;15.560;2022-11-21T06:21:54;99425.69;;;-1.91;100.00
10720;BME280;5411;58.386;15.560;2022-11-21T06:24:22;99428.19;;;-1.89;100.00
10720;BME280;5411;58.386;15.560;2022-11-21T06:26:51;99432.59;;;-1.90;100.00
10720;BME280;5411;58.386;15.560;2022-11-21T06:29:19;99428.47;;;-1.92;100.00
10720;BME280;5411;58.386;15.560;2022-11-21T06:31:47;99435.50;;;-1.93;100.00
10720;BME280;5411;58.386;15.560;2022-11-21T06:34:18;99436.47;;;-1.94;100.00
10720;BME280;5411;58.386;15.560;2022-11-21T06:36:45;99435.78;;;-1.96;100.00
10720;BME280;5411;58.386;15.560;2022-11-21T06:39:16;99442.13;;;-1.98;100.00
10720;BME280;5411;58.386;15.560;2022-11-21T06:41:44;99440.81;;;-2.02;100.00
10720;BME280;5411;58.386;15.560;2022-11-21T06:44:17;99455.84;;;-2.04;100.00
10720;BME280;5411;58.386;15.560;2022-11-21T06:46:45;99454.03;;;-2.04;100.00
10720;BME280;5411;58.386;15.560;2022-11-21T06:49:18;99461.91;;;-2.04;100.00
10720;BME280;5411;58.386;15.560;2022-11-21T06:51:47;99461.91;;;-2.04;100.00
10720;BME280;5411;58.386;15.560;2022-11-21T06:54:15;99461.22;;;-2.06;100.00
10720;BME280;5411;58.386;15.560;2022-11-21T06:56:50;99461.75;;;-2.02;100.00
10720;BME280;5411;58.386;15.560;2022-11-21T06:59:19;99473.06;;;-2.02;100.00
10720;BME280;5411;58.386;15.560;2022-11-21T07:01:47;99470.97;;;-1.98;100.00
10720;BME280;5411;58.386;15.560;2022-11-21T07:04:15;99470.69;;;-1.95;100.00
10720;BME280;5411;58.386;15.560;2022-11-21T07:06:44;99480.19;;;-1.94;100.00
10720;BME280;5411;58.386;15.560;2022-11-21T07:09:12;99482.97;;;-1.96;100.00
10720;BME280;5411;58.386;15.560;2022-11-21T07:11:59;99489.84;;;-1.95;100.00
10720;BME280;5411;58.386;15.560;2022-11-21T07:14:47;99494.41;;;-1.97;100.00
10720;BME280;5411;58.386;15.560;2022-11-21T07:17:14;99491.66;;;-1.95;100.00
10720;BME280;5411;58.386;15.560;2022-11-21T07:19:42;99481.03;;;-1.94;100.00
10720;BME280;5411;58.386;15.560;2022-11-21T07:22:11;99492.41;;;-1.85;100.00
10720;BME280;5411;58.386;15.560;2022-11-21T07:24:39;99487.56;;;-1.80;100.00
10720;BME280;5411;58.386;15.560;2022-11-21T07:27:07;99499.78;;;-1.71;100.00
10720;BME280;5411;58.386;15.560;2022-11-21T07:29:35;99495.50;;;-1.62;100.00
10720;BME280;5411;58.386;15.560;2022-11-21T07:32:03;99505.78;;;-1.51;100.00
10720;BME280;5411;58.386;15.560;2022-11-21T07:34:31;99498.13;;;-1.45;100.00
10720;BME280;5411;58.386;15.560;2022-11-21T07:36:59;99503.91;;;-1.41;100.00
10720;BME280;5411;58.386;15.560;2022-11-21T07:39:33;99500.84;;;-1.36;100.00
10720;BME280;5411;58.386;15.560;2022-11-21T07:42:01;99492.22;;;-1.29;100.00
10720;BME280;5411;58.386;15.560;2022-11-21T07:44:29;99499.38;;;-1.21;100.00
10720;BME280;5411;58.386;15.560;2022-11-21T07:46:57;99494.06;;;-1.12;100.00
10720;BME280;5411;58.386;15.560;2022-11-21T07:49:25;99503.94;;;-1.05;100.00
10720;BME280;5411;58.386;15.560;2022-11-21T07:51:54;99500.28;;;-0.95;100.00
10720;BME280;5411;58.386;15.560;2022-11-21T07:54:22;99507.25;;;-0.86;100.00
10720;BME280;5411;58.386;15.560;2022-11-21T07:56:53;99508.28;;;-0.79;100.00
10720;BME280;5411;58.386;15.560;2022-11-21T07:59:21;99513.31;;;-0.67;100.00
10720;BME280;5411;58.386;15.560;2022-11-21T08:01:49;99515.16;;;-0.60;100.00
10720;BME280;5411;58.386;15.560;2022-11-21T08:04:18;99517.34;;;-0.55;100.00
10720;BME280;5411;58.386;15.560;2022-11-21T08:06:46;99514.25;;;-0.51;100.00
10720;BME280;5411;58.386;15.560;2022-11-21T08:09:14;99512.81;;;-0.45;100.00
10720;BME280;5411;58.386;15.560;2022-11-21T08:11:42;99517.28;;;-0.38;100.00
10720;BME280;5411;58.386;15.560;2022-11-21T08:14:12;99515.03;;;-0.32;100.00
10720;BME280;5411;58.386;15.560;2022-11-21T08:16:40;99509.78;;;-0.32;100.00
10720;BME280;5411;58.386;15.560;2022-11-21T08:19:08;99523.59;;;-0.30;100.00
10720;BME280;5411;58.386;15.560;2022-11-21T08:21:36;99514.06;;;-0.31;100.00
10720;BME280;5411;58.386;15.560;2022-11-21T08:24:04;99513.59;;;-0.27;100.00
10720;BME280;5411;58.386;15.560;2022-11-21T08:26:36;99521.16;;;-0.24;100.00
10720;BME280;5411;58.386;15.560;2022-11-21T08:29:04;99520.47;;;-0.26;100.00
10720;BME280;5411;58.386;15.560;2022-11-21T08:31:35;99529.53;;;-0.28;100.00
10720;BME280;5411;58.386;15.560;2022-11-21T08:34:03;99527.72;;;-0.28;100.00
10720;BME280;5411;58.386;15.560;2022-11-21T08:36:38;99529.19;;;-0.25;100.00
10720;BME280;5411;58.386;15.560;2022-11-21T08:39:08;99523.63;;;-0.22;100.00
10720;BME280;5411;58.386;15.560;2022-11-21T08:41:36;99523.19;;;-0.18;100.00
10720;BME280;5411;58.386;15.560;2022-11-21T08:44:21;99527.66;;;-0.10;100.00
10720;BME280;5411;58.386;15.560;2022-11-21T08:46:51;99531.16;;;-0.02;100.00
10720;BME280;5411;58.386;15.560;2022-11-21T08:49:19;99525.28;;;0.05;100.00
10720;BME280;5411;58.386;15.560;2022-11-21T08:51:47;99530.91;;;0.10;100.00
10720;BME280;5411;58.386;15.560;2022-11-21T08:54:15;99536.19;;;0.18;100.00
10720;BME280;5411;58.386;15.560;2022-11-21T08:56:43;99531.44;;;0.21;100.00
10720;BME280;5411;58.386;15.560;2022-11-21T08:59:11;99533.63;;;0.26;100.00
10720;BME280;5411;58.386;15.560;2022-11-21T09:01:39;99524.09;;;0.33;100.00
10720;BME280;5411;58.386;15.560;2022-11-21T09:04:11;99520.31;;;0.35;100.00
10720;BME280;5411;58.386;15.560;2022-11-21T09:06:39;99528.75;;;0.39;100.00
10720;BME280;5411;58.386;15.560;2022-11-21T09:09:07;99535.47;;;0.42;100.00
10720;BME280;5411;58.386;15.560;2022-11-21T09:11:35;99531.91;;;0.51;100.00
10720;BME280;5411;58.386;15.560;2022-11-21T09:14:04;99532.44;;;0.62;100.00
10720;BME280;5411;58.386;15.560;2022-11-21T09:16:50;99527.34;;;0.69;100.00
10720;BME280;5411;58.386;15.560;2022-11-21T09:19:37;99526.72;;;0.75;100.00
10720;BME280;5411;58.386;15.560;2022-11-21T09:22:05;99524.25;;;0.82;100.00
10720;BME280;5411;58.386;15.560;2022-11-21T09:24:33;99525.94;;;0.91;100.00
10720;BME280;5411;58.386;15.560;2022-11-21T09:27:01;99519.16;;;0.96;100.00
10720;BME280;5411;58.386;15.560;2022-11-21T09:29:29;99523.97;;;1.01;100.00
10720;BME280;5411;58.386;15.560;2022-11-21T09:31:57;99519.19;;;1.04;100.00
10720;BME280;5411;58.386;15.560;2022-11-21T09:34:25;99527.41;;;1.10;100.00
10720;BME280;5411;58.386;15.560;2022-11-21T09:36:55;99532.38;;;1.13;100.00
10720;BME280;5411;58.386;15.560;2022-11-21T09:39:23;99523.31;;;1.15;100.00
10720;BME280;5411;58.386;15.560;2022-11-21T09:42:00;99515.41;;;1.15;100.00
10720;BME280;5411;58.386;15.560;2022-11-21T09:44:45;99519.19;;;1.13;100.00
10720;BME280;5411;58.386;15.560;2022-11-21T09:47:20;99534.34;;;1.11;100.00
10720;BME280;5411;58.386;15.560;2022-11-21T09:49:53;99534.66;;;1.07;100.00
10720;BME280;5411;58.386;15.560;2022-11-21T09:52:29;99541.59;;;1.17;100.00
10720;BME280;5411;58.386;15.560;2022-11-21T09:55:01;99525.47;;;1.28;100.00
10720;BME280;5411;58.386;15.560;2022-11-21T09:57:33;99528.75;;;1.38;100.00
10720;BME280;5411;58.386;15.560;2022-11-21T10:00:07;99537.47;;;1.63;100.00
10720;BME280;5411;58.386;15.560;2022-11-21T10:02:45;99528.06;;;1.93;100.00
10720;BME280;5411;58.386;15.560;2022-11-21T10:05:20;99519.53;;;2.30;100.00
10720;BME280;5411;58.386;15.560;2022-11-21T10:07:57;99526.69;;;2.60;100.00
10720;BME280;5411;58.386;15.560;2022-11-21T10:10:40;99520.25;;;2.85;100.00
10720;BME280;5411;58.386;15.560;2022-11-21T10:13:16;99520.09;;;3.10;100.00
10720;BME280;5411;58.386;15.560;2022-11-21T10:15:56;99514.63;;;3.19;100.00
10720;BME280;5411;58.386;15.560;2022-11-21T10:18:59;99515.06;;;3.23;100.00
10720;BME280;5411;58.386;15.560;2022-11-21T10:24:43;99505.06;;;3.33;100.00
10720;BME280;5411;58.386;15.560;2022-11-21T10:27:15;99507.00;;;3.39;100.00
10720;BME280;5411;58.386;15.560;2022-11-21T10:29:48;99502.06;;;3.36;100.00
10720;BME280;5411;58.386;15.560;2022-11-21T10:32:22;99497.25;;;3.40;100.00
10720;BME280;5411;58.386;15.560;2022-11-21T10:34:56;99489.75;;;3.29;100.00
10720;BME280;5411;58.386;15.560;2022-11-21T10:37:32;99487.88;;;3.14;100.00
10720;BME280;5411;58.386;15.560;2022-11-21T10:40:15;99499.72;;;2.96;100.00
10720;BME280;5411;58.386;15.560;2022-11-21T10:42:52;99495.50;;;2.86;100.00
10720;BME280;5411;58.386;15.560;2022-11-21T10:45:22;99497.56;;;2.76;100.00
10720;BME280;5411;58.386;15.560;2022-11-21T10:47:50;99509.97;;;2.68;100.00
10720;BME280;5411;58.386;15.560;2022-11-21T10:50:34;99503.25;;;2.57;100.00
10720;BME280;5411;58.386;15.560;2022-11-21T10:53:11;99513.53;;;2.44;100.00
10720;BME280;5411;58.386;15.560;2022-11-21T10:56:04;99512.16;;;2.25;100.00
10720;BME280;5411;58.386;15.560;2022-11-21T10:58:38;99506.91;;;2.09;100.00
10720;BME280;5411;58.386;15.560;2022-11-21T11:01:18;99508.09;;;1.98;100.00
10720;BME280;5411;58.386;15.560;2022-11-21T11:03:47;99503.38;;;1.86;100.00
10720;BME280;5411;58.386;15.560;2022-11-21T11:06:35;99509.47;;;1.70;100.00
10720;BME280;5411;58.386;15.560;2022-11-21T11:09:04;99500.28;;;1.58;100.00
10720;BME280;5411;58.386;15.560;2022-11-21T11:11:34;99505.88;;;1.55;100.00
10720;BME280;5411;58.386;15.560;2022-11-21T11:14:04;99508.66;;;1.53;100.00
10720;BME280;5411;58.386;15.560;2022-11-21T11:16:34;99508.16;;;1.50;100.00
10720;BME280;5411;58.386;15.560;2022-11-21T11:19:16;99508.69;;;1.45;100.00
10720;BME280;5411;58.386;15.560;2022-11-21T11:21:57;99509.31;;;1.47;100.00
10720;BME280;5411;58.386;15.560;2022-11-21T11:24:26;99494.81;;;1.51;100.00
10720;BME280;5411;58.386;15.560;2022-11-21T11:26:58;99497.63;;;1.50;100.00
10720;BME280;5411;58.386;15.560;2022-11-21T11:29:27;99488.56;;;1.52;100.00
10720;BME280;5411;58.386;15.560;2022-11-21T11:31:59;99492.69;;;1.55;100.00
10720;BME280;5411;58.386;15.560;2022-11-21T11:34:37;99489.22;;;1.62;100.00
10720;BME280;5411;58.386;15.560;2022-11-21T11:37:11;99488.22;;;1.71;100.00
10720;BME280;5411;58.386;15.560;2022-11-21T11:39:49;99490.00;;;1.79;100.00
10720;BME280;5411;58.386;15.560;2022-11-21T11:42:47;99488.38;;;1.86;100.00
10720;BME280;5411;58.386;15.560;2022-11-21T11:46:03;99489.81;;;1.89;100.00
10720;BME280;5411;58.386;15.560;2022-11-21T11:48:54;99490.97;;;1.94;100.00
10720;BME280;5411;58.386;15.560;2022-11-21T11:51:48;99486.81;;;2.00;100.00
10720;BME280;5411;58.386;15.560;2022-11-21T11:54:20;99487.13;;;2.05;100.00
10720;BME280;5411;58.386;15.560;2022-11-21T11:56:50;99485.97;;;2.07;100.00
10720;BME280;5411;58.386;15.560;2022-11-21T11:59:22;99487.63;;;2.08;100.00
10720;BME280;5411;58.386;15.560;2022-11-21T12:01:58;99493.06;;;2.07;100.00
10720;BME280;5411;58.386;15.560;2022-11-21T12:04:39;99486.81;;;2.00;100.00
10720;BME280;5411;58.386;15.560;2022-11-21T12:07:16;99487.00;;;1.98;100.00
10720;BME280;5411;58.386;15.560;2022-11-21T12:10:12;99489.97;;;1.95;100.00
10720;BME280;5411;58.386;15.560;2022-11-21T12:12:45;99484.88;;;1.94;100.00
10720;BME280;5411;58.386;15.560;2022-11-21T12:15:19;99479.44;;;1.95;100.00
10720;BME280;5411;58.386;15.560;2022-11-21T12:18:14;99479.25;;;1.89;100.00
10720;BME280;5411;58.386;15.560;2022-11-21T12:20:55;99480.78;;;1.83;100.00
10720;BME280;5411;58.386;15.560;2022-11-21T12:23:27;99483.41;;;1.83;100.00
10720;BME280;5411;58.386;15.560;2022-11-21T12:26:06;99489.84;;;1.81;100.00
10720;BME280;5411;58.386;15.560;2022-11-21T12:28:51;99482.09;;;1.79;100.00
10720;BME280;5411;58.386;15.560;2022-11-21T12:31:25;99471.22;;;1.74;100.00
10720;BME280;5411;58.386;15.560;2022-11-21T12:34:04;99477.84;;;1.70;100.00
10720;BME280;5411;58.386;15.560;2022-11-21T12:36:40;99475.22;;;1.70;100.00
10720;BME280;5411;58.386;15.560;2022-11-21T12:39:39;99457.25;;;1.65;100.00
10720;BME280;5411;58.386;15.560;2022-11-21T12:42:17;99463.00;;;1.69;100.00
10720;BME280;5411;58.386;15.560;2022-11-21T12:45:23;99471.59;;;1.71;100.00
10720;BME280;5411;58.386;15.560;2022-11-21T12:48:13;99477.31;;;1.74;100.00
10720;BME280;5411;58.386;15.560;2022-11-21T12:51:21;99465.94;;;1.74;100.00
10720;BME280;5411;58.386;15.560;2022-11-21T12:54:31;99469.59;;;1.73;100.00
10720;BME280;5411;58.386;15.560;2022-11-21T12:57:07;99463.50;;;1.72;100.00
10720;BME280;5411;58.386;15.560;2022-11-21T12:59:51;99462.84;;;1.70;100.00
10720;BME280;5411;58.386;15.560;2022-11-21T13:02:30;99462.84;;;1.70;100.00
10720;BME280;5411;58.386;15.560;2022-11-21T13:05:04;99453.13;;;1.71;100.00
10720;BME280;5411;58.386;15.560;2022-11-21T13:07:33;99464.66;;;1.70;100.00
10720;BME280;5411;58.386;15.560;2022-11-21T13:10:03;99462.84;;;1.70;100.00
10720;BME280;5411;58.386;15.560;2022-11-21T13:12:37;99448.53;;;1.65;100.00
10720;BME280;5411;58.386;15.560;2022-11-21T13:15:17;99451.47;;;1.70;100.00
10720;BME280;5411;58.386;15.560;2022-11-21T13:17:49;99446.88;;;1.72;100.00
10720;BME280;5411;58.386;15.560;2022-11-21T13:20:28;99442.06;;;1.75;100.00
10720;BME280;5411;58.386;15.560;2022-11-21T13:22:59;99444.69;;;1.75;100.00